createdAt,value
2022-12-03T00:00:32.792Z,47.10
2022-12-03T00:03:19.931Z,47.80
2022-12-03T00:05:49.460Z,48.30
2022-12-03T00:08:17.775Z,43.40
2022-12-03T00:10:46.079Z,44.70
2022-12-03T00:13:14.309Z,48.90
2022-12-03T00:15:42.477Z,47.00
2022-12-03T00:18:10.946Z,45.50
2022-12-03T00:20:39.149Z,50.20
2022-12-03T00:23:07.415Z,48.30
2022-12-03T00:25:35.897Z,47.70
2022-12-03T00:28:04.189Z,46.20
2022-12-03T00:30:33.621Z,50.30
2022-12-03T00:33:01.973Z,51.40
2022-12-03T00:35:30.564Z,45.50
2022-12-03T00:37:58.638Z,41.00
2022-12-03T00:40:26.916Z,41.50
2022-12-03T00:42:55.072Z,47.70
2022-12-03T00:45:23.551Z,45.80
2022-12-03T00:47:51.815Z,44.00
2022-12-03T00:50:20.001Z,44.50
2022-12-03T00:52:49.868Z,40.30
2022-12-03T00:55:18.309Z,48.50
2022-12-03T00:57:47.171Z,49.40
2022-12-03T01:00:15.867Z,43.00
2022-12-03T01:02:44.074Z,51.00
2022-12-03T01:05:12.425Z,49.10
2022-12-03T01:07:40.915Z,47.30
2022-12-03T01:10:09.452Z,46.70
2022-12-03T01:12:37.889Z,53.40
2022-12-03T01:15:07.403Z,49.20
2022-12-03T01:17:35.749Z,53.50
2022-12-03T01:20:09.801Z,52.90
2022-12-03T01:22:38.274Z,49.80
2022-12-03T01:25:07.520Z,36.60
2022-12-03T01:27:35.664Z,48.80
2022-12-03T01:30:05.389Z,36.40
2022-12-03T01:32:33.973Z,48.30
2022-12-03T01:35:02.152Z,49.20
2022-12-03T01:37:30.362Z,50.80
2022-12-03T01:39:58.926Z,47.00
2022-12-03T01:42:31.153Z,49.80
2022-12-03T01:45:01.019Z,51.00
2022-12-03T01:47:32.354Z,52.70
2022-12-03T01:50:05.803Z,48.70
2022-12-03T01:52:38.305Z,47.40
2022-12-03T01:55:16.366Z,52.40
2022-12-03T01:57:51.697Z,51.10
2022-12-03T02:00:23.790Z,48.00
2022-12-03T02:02:57.980Z,48.30
2022-12-03T02:05:29.041Z,39.80
2022-12-03T02:07:57.914Z,45.90
2022-12-03T02:10:36.260Z,45.90
2022-12-03T02:13:08.333Z,51.00
2022-12-03T02:15:38.506Z,52.20
2022-12-03T02:18:09.060Z,54.40
2022-12-03T02:20:45.735Z,47.90
2022-12-03T02:23:26.226Z,45.70
2022-12-03T02:25:54.531Z,45.80
2022-12-03T02:28:22.721Z,40.90
2022-12-03T02:30:51.329Z,45.50
2022-12-03T02:33:19.637Z,47.50
2022-12-03T02:35:48.646Z,47.80
2022-12-03T02:38:28.161Z,51.30
2022-12-03T02:41:01.204Z,54.50
2022-12-03T02:43:29.549Z,55.10
2022-12-03T02:46:00.427Z,51.70
2022-12-03T02:48:46.490Z,45.30
2022-12-03T02:51:15.121Z,49.10
2022-12-03T02:53:46.153Z,50.30
2022-12-03T02:56:19.409Z,43.40
2022-12-03T02:58:50.193Z,48.10
2022-12-03T03:01:18.698Z,47.80
2022-12-03T03:03:48.875Z,50.40
2022-12-03T03:06:19.571Z,52.20
2022-12-03T03:08:49.031Z,53.10
2022-12-03T03:11:17.404Z,53.10
2022-12-03T03:13:46.119Z,52.70
2022-12-03T03:16:14.773Z,46.90
2022-12-03T03:18:42.972Z,51.90
2022-12-03T03:21:12.709Z,54.70
2022-12-03T03:23:40.824Z,52.30
2022-12-03T03:26:12.400Z,54.80
2022-12-03T03:28:44.964Z,54.90
2022-12-03T03:31:15.404Z,58.50
2022-12-03T03:33:45.738Z,52.90
2022-12-03T03:36:15.413Z,57.40
2022-12-03T03:38:44.273Z,55.90
2022-12-03T03:41:13.566Z,56.60
2022-12-03T03:43:44.387Z,51.90
2022-12-03T03:46:13.833Z,56.80
2022-12-03T03:48:43.944Z,49.70
2022-12-03T03:51:13.471Z,58.40
2022-12-03T03:53:45.090Z,55.60
2022-12-03T03:56:14.800Z,48.30
2022-12-03T03:58:43.345Z,55.00
2022-12-03T04:01:13.418Z,52.70
2022-12-03T04:03:41.824Z,46.10
2022-12-03T04:06:10.520Z,50.10
2022-12-03T04:08:41.076Z,55.30
2022-12-03T04:11:28.510Z,54.30
2022-12-03T04:13:56.641Z,54.80
2022-12-03T04:16:24.937Z,55.50
2022-12-03T04:18:53.269Z,49.50
2022-12-03T04:21:42.199Z,53.00
2022-12-03T04:24:11.578Z,50.80
2022-12-03T04:26:58.561Z,58.90
2022-12-03T04:29:26.678Z,56.10
2022-12-03T04:32:13.698Z,52.80
2022-12-03T04:35:00.433Z,57.90
2022-12-03T04:37:28.629Z,54.00
2022-12-03T04:39:56.812Z,59.80
2022-12-03T04:42:25.449Z,52.40
2022-12-03T04:44:54.116Z,50.10
2022-12-03T04:47:22.719Z,60.10
2022-12-03T04:49:51.738Z,58.90
2022-12-03T04:52:21.097Z,58.70
2022-12-03T04:54:49.772Z,55.40
2022-12-03T04:57:18.465Z,53.20
2022-12-03T04:59:46.735Z,53.30
2022-12-03T05:02:15.366Z,50.60
2022-12-03T05:04:44.756Z,54.80
2022-12-03T05:07:13.426Z,57.20
2022-12-03T05:09:41.578Z,63.30
2022-12-03T05:12:09.906Z,59.00
2022-12-03T05:14:38.319Z,59.10
2022-12-03T05:17:06.560Z,55.20
2022-12-03T05:19:53.498Z,54.90
2022-12-03T05:22:21.852Z,58.40
2022-12-03T05:24:50.235Z,59.00
2022-12-03T05:27:23.407Z,54.50
2022-12-03T05:29:52.431Z,58.30
2022-12-03T05:32:21.004Z,60.70
2022-12-03T05:34:49.358Z,58.90
2022-12-03T05:37:17.649Z,63.00
2022-12-03T05:39:45.767Z,54.70
2022-12-03T05:42:32.742Z,55.00
2022-12-03T05:45:01.215Z,55.10
2022-12-03T05:47:29.479Z,64.70
2022-12-03T05:49:57.682Z,53.20
2022-12-03T05:52:26.302Z,56.50
2022-12-03T05:54:55.979Z,59.40
2022-12-03T05:57:24.526Z,58.90
2022-12-03T05:59:52.759Z,57.50
2022-12-03T06:02:21.351Z,57.00
2022-12-03T06:04:49.986Z,48.40
2022-12-03T06:07:18.309Z,65.00
2022-12-03T06:09:46.496Z,52.50
2022-12-03T06:12:15.000Z,62.30
2022-12-03T06:14:43.212Z,56.40
2022-12-03T06:17:11.710Z,56.40
2022-12-03T06:19:40.004Z,58.40
2022-12-03T06:22:08.216Z,64.40
2022-12-03T06:24:36.422Z,53.30
2022-12-03T06:27:05.494Z,65.80
2022-12-03T06:29:33.830Z,70.30
2022-12-03T06:32:02.696Z,63.10
2022-12-03T06:34:31.330Z,66.90
2022-12-03T06:36:59.604Z,57.70
2022-12-03T06:39:27.788Z,64.70
2022-12-03T06:41:56.155Z,59.20
2022-12-03T06:44:24.364Z,69.10
2022-12-03T06:46:52.871Z,69.30
2022-12-03T06:49:21.331Z,64.80
2022-12-03T06:51:49.507Z,65.10
2022-12-03T06:54:17.704Z,61.50
2022-12-03T06:56:47.275Z,59.40
2022-12-03T06:59:15.545Z,63.70
2022-12-03T07:01:44.503Z,56.40
2022-12-03T07:07:00.560Z,57.30
2022-12-03T07:09:29.355Z,58.90
2022-12-03T07:11:57.775Z,59.80
2022-12-03T07:14:26.119Z,67.10
2022-12-03T07:16:54.440Z,59.20
2022-12-03T07:19:25.252Z,56.00
2022-12-03T07:21:57.890Z,54.60
2022-12-03T07:24:26.609Z,62.10
2022-12-03T07:26:55.072Z,67.60
2022-12-03T07:29:24.060Z,60.00
2022-12-03T07:31:52.478Z,70.50
2022-12-03T07:34:20.761Z,68.30
2022-12-03T07:36:49.269Z,66.70
2022-12-03T07:39:17.559Z,57.80
2022-12-03T07:41:46.040Z,65.60
2022-12-03T07:44:15.017Z,64.90
2022-12-03T07:46:43.469Z,61.30
2022-12-03T07:49:12.494Z,65.90
2022-12-03T07:51:41.083Z,61.70
2022-12-03T07:54:09.529Z,62.30
2022-12-03T07:56:37.953Z,67.40
2022-12-03T07:59:06.504Z,67.20
2022-12-03T08:01:34.935Z,69.10
2022-12-03T08:04:03.558Z,67.10
2022-12-03T08:06:31.708Z,63.70
2022-12-03T08:09:00.127Z,64.40
2022-12-03T08:11:29.559Z,55.00
2022-12-03T08:13:58.368Z,57.10
2022-12-03T08:16:26.620Z,64.10
2022-12-03T08:18:57.674Z,66.60
2022-12-03T08:21:35.231Z,60.80
2022-12-03T08:24:20.042Z,62.50
2022-12-03T08:26:49.703Z,60.50
2022-12-03T08:29:19.980Z,65.40
2022-12-03T08:31:57.310Z,57.20
2022-12-03T08:34:36.043Z,57.20
2022-12-03T08:37:16.240Z,56.20
2022-12-03T08:39:48.467Z,65.00
2022-12-03T08:42:41.693Z,60.90
2022-12-03T08:45:40.046Z,56.30
2022-12-03T08:48:35.097Z,52.20
2022-12-03T08:51:19.251Z,55.60
2022-12-03T08:53:58.120Z,51.40
2022-12-03T08:56:33.399Z,55.90
2022-12-03T08:59:26.900Z,58.40
2022-12-03T09:01:56.502Z,55.60
2022-12-03T09:04:41.781Z,56.70
2022-12-03T09:07:10.208Z,62.40
2022-12-03T09:09:39.115Z,69.50
2022-12-03T09:12:07.709Z,58.70
2022-12-03T09:14:36.129Z,72.80
2022-12-03T09:17:05.056Z,65.90
2022-12-03T09:19:33.614Z,62.40
2022-12-03T09:22:02.271Z,48.40
2022-12-03T09:24:30.881Z,51.60
2022-12-03T09:26:59.307Z,54.80
2022-12-03T09:29:27.990Z,56.60
2022-12-03T09:31:56.543Z,56.40
2022-12-03T09:34:25.523Z,59.80
2022-12-03T09:36:54.200Z,49.20
2022-12-03T09:39:22.717Z,55.50
2022-12-03T09:41:51.186Z,53.30
2022-12-03T09:44:19.874Z,56.30
2022-12-03T09:46:51.558Z,52.70
2022-12-03T09:49:20.297Z,53.00
2022-12-03T09:51:49.123Z,55.00
2022-12-03T09:54:26.746Z,58.60
2022-12-03T09:56:57.778Z,54.00
2022-12-03T09:59:34.461Z,54.40
2022-12-03T10:02:03.867Z,55.50
2022-12-03T10:04:32.645Z,58.70
2022-12-03T10:07:01.586Z,59.90
2022-12-03T10:09:30.806Z,63.40
2022-12-03T10:12:00.141Z,53.50
2022-12-03T10:14:29.200Z,57.60
2022-12-03T10:16:59.823Z,69.60
2022-12-03T10:19:35.964Z,66.00
2022-12-03T10:22:04.523Z,63.30
2022-12-03T10:24:35.436Z,63.40
2022-12-03T10:27:20.263Z,56.00
2022-12-03T10:29:57.541Z,58.70
2022-12-03T10:32:38.586Z,60.30
2022-12-03T10:35:16.861Z,59.20
2022-12-03T10:38:07.833Z,62.20
2022-12-03T10:40:40.713Z,62.60
2022-12-03T10:43:19.901Z,65.20
2022-12-03T10:46:11.553Z,61.70
2022-12-03T10:48:40.770Z,61.90
2022-12-03T10:51:23.000Z,57.60
2022-12-03T10:53:51.515Z,58.10
2022-12-03T10:56:27.713Z,60.20
2022-12-03T10:58:56.661Z,58.50
2022-12-03T11:01:27.335Z,68.00
2022-12-03T11:04:04.404Z,54.80
2022-12-03T11:06:33.292Z,62.80
2022-12-03T11:09:08.760Z,63.40
2022-12-03T11:11:37.835Z,52.50
2022-12-03T11:14:06.323Z,57.80
2022-12-03T11:16:41.009Z,65.60
2022-12-03T11:19:12.437Z,58.20
2022-12-03T11:22:10.488Z,53.90
2022-12-03T11:24:40.819Z,61.30
2022-12-03T11:27:09.624Z,64.30
2022-12-03T11:29:49.857Z,62.50
2022-12-03T11:32:40.712Z,71.60
2022-12-03T11:35:15.772Z,64.20
2022-12-03T11:37:44.275Z,61.30
2022-12-03T11:40:18.724Z,50.10
2022-12-03T11:42:48.698Z,58.50
2022-12-03T11:45:27.572Z,60.30
2022-12-03T11:47:58.949Z,56.10
2022-12-03T11:50:49.734Z,53.90
2022-12-03T11:53:26.055Z,54.10
2022-12-03T11:56:09.375Z,57.60
2022-12-03T12:01:09.071Z,61.00
2022-12-03T12:03:46.907Z,60.70
2022-12-03T12:06:20.689Z,59.90
2022-12-03T12:08:52.678Z,66.50
2022-12-03T12:11:21.212Z,60.50
2022-12-03T12:13:50.940Z,66.00
2022-12-03T12:16:55.833Z,67.00
2022-12-03T12:19:35.731Z,67.60
2022-12-03T12:22:24.391Z,66.50
2022-12-03T12:25:04.743Z,70.30
2022-12-03T12:27:39.712Z,63.10
2022-12-03T12:30:14.031Z,69.90
2022-12-03T12:33:01.372Z,70.00
2022-12-03T12:35:33.166Z,66.60
2022-12-03T12:38:11.159Z,78.00
2022-12-03T12:40:43.272Z,70.60
2022-12-03T12:43:15.218Z,65.70
2022-12-03T12:48:13.316Z,65.50
2022-12-03T12:50:44.061Z,74.70
2022-12-03T12:53:44.698Z,75.50
2022-12-03T12:56:32.075Z,59.90
2022-12-03T12:59:20.866Z,75.70
2022-12-03T13:01:50.335Z,65.80
2022-12-03T13:04:23.906Z,81.70
2022-12-03T13:06:54.295Z,78.50
2022-12-03T13:09:25.575Z,72.40
2022-12-03T13:11:57.404Z,86.40
2022-12-03T13:14:35.377Z,81.70
2022-12-03T13:17:24.673Z,84.10
2022-12-03T13:20:03.680Z,82.10
2022-12-03T13:22:35.419Z,81.90
2022-12-03T13:28:31.335Z,76.60
2022-12-03T13:31:15.422Z,81.70
2022-12-03T13:33:44.051Z,82.70
2022-12-03T13:36:16.395Z,71.60
2022-12-03T13:38:45.316Z,92.10
2022-12-03T13:41:37.077Z,84.40
2022-12-03T13:44:18.406Z,88.00
2022-12-03T13:46:47.260Z,85.70
2022-12-03T13:49:23.527Z,84.80
2022-12-03T13:51:52.123Z,76.70
2022-12-03T13:54:27.991Z,87.70
2022-12-03T13:56:56.361Z,84.30
2022-12-03T13:59:26.314Z,94.40
2022-12-03T14:01:55.054Z,80.60
2022-12-03T14:06:38.764Z,81.70
2022-12-03T14:09:07.447Z,74.80
2022-12-03T14:11:54.671Z,73.60
2022-12-03T14:14:23.565Z,78.30
2022-12-03T14:16:58.196Z,74.40
2022-12-03T14:19:28.327Z,74.10
2022-12-03T14:21:57.098Z,83.90
2022-12-03T14:24:25.672Z,72.60
2022-12-03T14:26:54.299Z,84.50
2022-12-03T14:29:22.745Z,75.90
2022-12-03T14:31:51.283Z,78.90
2022-12-03T14:34:19.815Z,75.70
2022-12-03T14:36:48.225Z,84.10
2022-12-03T14:39:16.637Z,73.80
2022-12-03T14:42:03.814Z,83.60
2022-12-03T14:44:32.264Z,76.00
2022-12-03T14:47:00.721Z,73.70
2022-12-03T14:49:29.328Z,66.70
2022-12-03T14:51:57.828Z,79.80
2022-12-03T14:54:26.357Z,73.50
2022-12-03T14:56:54.896Z,85.30
2022-12-03T14:59:27.587Z,76.50
2022-12-03T15:01:56.908Z,83.90
2022-12-03T15:04:25.548Z,81.80
2022-12-03T15:06:53.956Z,77.30
2022-12-03T15:09:22.428Z,80.00
2022-12-03T15:11:50.742Z,82.60
2022-12-03T15:14:19.196Z,85.40
2022-12-03T15:16:47.655Z,76.00
2022-12-03T15:19:16.304Z,72.70
2022-12-03T15:21:44.744Z,73.50
2022-12-03T15:24:13.321Z,73.70
2022-12-03T15:26:41.692Z,83.80
2022-12-03T15:29:10.238Z,76.40
2022-12-03T15:31:38.632Z,69.70
2022-12-03T15:34:07.069Z,77.20
2022-12-03T15:36:35.558Z,86.40
2022-12-03T15:39:04.198Z,76.80
2022-12-03T15:41:32.876Z,73.20
2022-12-03T15:44:02.331Z,74.80
2022-12-03T15:46:31.682Z,78.80
2022-12-03T15:49:00.373Z,76.40
2022-12-03T15:51:28.856Z,73.10
2022-12-03T15:53:57.321Z,73.50
2022-12-03T15:56:25.727Z,75.10
2022-12-03T15:58:54.440Z,68.80
2022-12-03T16:01:22.924Z,70.10
2022-12-03T16:03:51.369Z,71.40
2022-12-03T16:06:19.838Z,77.60
2022-12-03T16:08:48.490Z,82.20
2022-12-03T16:11:16.861Z,79.20
2022-12-03T16:13:45.285Z,75.00
2022-12-03T16:16:13.751Z,64.50
2022-12-03T16:18:44.103Z,69.00
2022-12-03T16:21:12.421Z,67.90
2022-12-03T16:23:41.001Z,78.30
2022-12-03T16:26:09.386Z,75.70
2022-12-03T16:28:37.677Z,74.80
2022-12-03T16:31:06.253Z,83.20
2022-12-03T16:33:34.845Z,74.20
2022-12-03T16:36:03.889Z,75.80
2022-12-03T16:38:33.845Z,80.00
2022-12-03T16:41:02.517Z,73.50
2022-12-03T16:43:30.910Z,80.10
2022-12-03T16:46:03.293Z,72.40
2022-12-03T16:48:31.769Z,77.40
2022-12-03T16:51:00.141Z,77.50
2022-12-03T16:53:28.444Z,72.70
2022-12-03T16:55:56.908Z,72.30
2022-12-03T16:58:25.430Z,77.10
2022-12-03T17:00:54.357Z,73.40
2022-12-03T17:03:23.206Z,76.60
2022-12-03T17:05:51.554Z,73.70
2022-12-03T17:08:20.395Z,76.90
2022-12-03T17:10:48.747Z,73.10
2022-12-03T17:13:17.110Z,74.20
2022-12-03T17:15:45.429Z,56.80
2022-12-03T17:18:13.793Z,77.00
2022-12-03T17:20:42.548Z,75.80
2022-12-03T17:23:12.018Z,77.20
2022-12-03T17:25:40.304Z,71.80
2022-12-03T17:28:08.889Z,80.80
2022-12-03T17:30:38.784Z,72.00
2022-12-03T17:33:07.144Z,73.40
2022-12-03T17:35:35.472Z,67.10
2022-12-03T17:38:03.847Z,65.80
2022-12-03T17:40:32.252Z,70.20
2022-12-03T17:43:00.627Z,64.00
2022-12-03T17:45:29.105Z,58.10
2022-12-03T17:47:57.472Z,66.80
2022-12-03T17:50:26.300Z,67.30
2022-12-03T17:52:54.612Z,54.70
2022-12-03T17:55:32.094Z,69.60
2022-12-03T17:58:05.291Z,76.10
2022-12-03T18:00:34.255Z,101.80
2022-12-03T18:03:02.613Z,95.30
2022-12-03T18:05:31.066Z,83.00
2022-12-03T18:07:59.593Z,75.90
2022-12-03T18:10:28.106Z,75.20
2022-12-03T18:13:01.421Z,86.80
2022-12-03T18:15:31.098Z,77.00
2022-12-03T18:17:59.927Z,75.30
2022-12-03T18:20:28.540Z,80.90
2022-12-03T18:22:59.466Z,78.20
2022-12-03T18:25:29.307Z,81.70
2022-12-03T18:27:57.924Z,83.50
2022-12-03T18:30:26.530Z,81.20
2022-12-03T18:32:55.070Z,67.90
2022-12-03T18:35:23.822Z,69.20
2022-12-03T18:37:52.146Z,66.40
2022-12-03T18:40:23.707Z,63.20
2022-12-03T18:42:52.330Z,64.30
2022-12-03T18:45:20.766Z,66.70
2022-12-03T18:47:49.751Z,67.80
2022-12-03T18:50:18.187Z,74.80
2022-12-03T18:52:46.607Z,78.10
2022-12-03T18:55:18.860Z,79.90
2022-12-03T18:57:47.218Z,74.40
2022-12-03T19:00:16.216Z,71.40
2022-12-03T19:03:02.622Z,74.60
2022-12-03T19:05:34.551Z,67.60
2022-12-03T19:08:03.937Z,67.40
2022-12-03T19:10:32.611Z,68.80
2022-12-03T19:13:00.994Z,63.60
2022-12-03T19:15:29.337Z,57.70
2022-12-03T19:17:57.752Z,63.20
2022-12-03T19:20:26.260Z,61.40
2022-12-03T19:22:54.633Z,64.50
2022-12-03T19:25:23.331Z,61.20
2022-12-03T19:27:55.303Z,61.10
2022-12-03T19:30:23.963Z,58.10
2022-12-03T19:32:52.591Z,57.00
2022-12-03T19:35:21.626Z,58.60
2022-12-03T19:37:50.304Z,60.80
2022-12-03T19:40:18.778Z,59.00
2022-12-03T19:42:47.308Z,63.20
2022-12-03T19:45:15.691Z,70.90
2022-12-03T19:47:43.966Z,59.30
2022-12-03T19:50:19.416Z,63.50
2022-12-03T19:52:51.424Z,53.80
2022-12-03T19:55:20.172Z,52.10
2022-12-03T19:57:48.920Z,56.70
2022-12-03T20:00:17.878Z,57.80
2022-12-03T20:02:49.229Z,62.90
2022-12-03T20:05:17.634Z,58.30
2022-12-03T20:07:45.966Z,56.60
2022-12-03T20:10:14.649Z,51.70
2022-12-03T20:12:42.982Z,57.40
2022-12-03T20:15:12.367Z,62.80
2022-12-03T20:17:40.611Z,57.70
2022-12-03T20:20:12.394Z,56.80
2022-12-03T20:22:41.109Z,58.20
2022-12-03T20:25:10.277Z,59.40
2022-12-03T20:27:38.538Z,61.70
2022-12-03T20:30:07.462Z,61.00
2022-12-03T20:32:40.556Z,59.10
2022-12-03T20:35:12.310Z,61.40
2022-12-03T20:37:40.629Z,58.00
2022-12-03T20:40:09.631Z,58.90
2022-12-03T20:42:37.969Z,57.50
2022-12-03T20:45:06.787Z,55.40
2022-12-03T20:47:35.015Z,58.00
2022-12-03T20:50:03.542Z,61.40
2022-12-03T20:52:32.052Z,59.20
2022-12-03T20:55:00.869Z,59.80
2022-12-03T20:57:29.320Z,55.10
2022-12-03T20:59:58.849Z,62.20
2022-12-03T21:02:27.369Z,55.50
2022-12-03T21:04:56.094Z,56.60
2022-12-03T21:07:24.455Z,56.40
2022-12-03T21:09:52.974Z,55.50
2022-12-03T21:12:21.572Z,53.30
2022-12-03T21:14:49.961Z,53.20
2022-12-03T21:17:18.551Z,52.00
2022-12-03T21:19:47.476Z,59.10
2022-12-03T21:22:15.665Z,61.40
2022-12-03T21:24:44.175Z,53.60
2022-12-03T21:27:17.096Z,55.80
2022-12-03T21:29:49.942Z,55.40
2022-12-03T21:32:19.151Z,55.30
2022-12-03T21:34:47.893Z,56.50
2022-12-03T21:37:16.143Z,54.10
2022-12-03T21:39:44.364Z,59.90
2022-12-03T21:42:34.686Z,53.70
2022-12-03T21:45:01.132Z,64.40
2022-12-03T21:47:35.089Z,54.30
2022-12-03T21:50:07.869Z,52.20
2022-12-03T21:52:36.216Z,52.70
2022-12-03T21:55:05.139Z,56.60
2022-12-03T21:57:36.694Z,59.50
2022-12-03T22:00:07.931Z,51.20
2022-12-03T22:02:40.251Z,55.70
2022-12-03T22:05:10.522Z,54.30
2022-12-03T22:07:39.666Z,59.30
2022-12-03T22:10:10.120Z,52.70
2022-12-03T22:12:40.890Z,53.40
2022-12-03T22:15:16.543Z,58.80
2022-12-03T22:17:47.688Z,53.40
2022-12-03T22:20:15.986Z,54.80
2022-12-03T22:22:44.186Z,54.80
2022-12-03T22:25:13.516Z,53.20
2022-12-03T22:27:41.993Z,54.10
2022-12-03T22:30:10.398Z,55.50
2022-12-03T22:32:38.609Z,50.10
2022-12-03T22:35:07.146Z,55.20
2022-12-03T22:37:35.365Z,53.80
2022-12-03T22:40:05.044Z,54.70
2022-12-03T22:42:33.298Z,50.90
2022-12-03T22:45:01.550Z,49.80
2022-12-03T22:47:29.838Z,52.90
2022-12-03T22:49:58.138Z,50.40
2022-12-03T22:52:26.405Z,57.50
2022-12-03T22:54:54.633Z,53.90
2022-12-03T22:57:22.837Z,52.50
2022-12-03T22:59:51.046Z,59.50
2022-12-03T23:02:19.464Z,55.40
2022-12-03T23:04:47.772Z,56.30
2022-12-03T23:07:16.028Z,57.90
2022-12-03T23:09:44.172Z,55.90
2022-12-03T23:12:14.729Z,59.20
2022-12-03T23:14:42.914Z,59.10
2022-12-03T23:17:11.144Z,54.10
2022-12-03T23:19:39.364Z,60.00
2022-12-03T23:22:08.138Z,60.10
2022-12-03T23:24:36.946Z,61.40
2022-12-03T23:27:05.187Z,58.30
2022-12-03T23:29:35.113Z,61.90
2022-12-03T23:32:03.467Z,50.00
2022-12-03T23:34:31.701Z,55.10
2022-12-03T23:37:00.059Z,61.50
2022-12-03T23:39:28.263Z,60.10
2022-12-03T23:41:56.914Z,51.00
2022-12-03T23:44:27.856Z,58.60
2022-12-03T23:46:56.109Z,57.80
2022-12-03T23:49:24.361Z,58.60
2022-12-03T23:51:52.610Z,57.50
2022-12-03T23:54:20.769Z,55.80
2022-12-03T23:56:49.113Z,61.80
2022-12-03T23:59:17.394Z,63.60
